createdAt,value
2022-08-24T00:00:29.519Z,24.38
2022-08-24T00:01:32.155Z,24.37
2022-08-24T00:02:35.264Z,24.36
2022-08-24T00:03:39.625Z,24.34
2022-08-24T00:04:41.329Z,24.31
2022-08-24T00:05:44.026Z,24.31
2022-08-24T00:06:45.609Z,24.29
2022-08-24T00:07:49.697Z,24.28
2022-08-24T00:08:52.715Z,24.27
2022-08-24T00:09:55.291Z,24.26
2022-08-24T00:10:59.624Z,24.25
2022-08-24T00:12:01.283Z,24.24
2022-08-24T00:13:04.447Z,24.24
2022-08-24T00:14:06.819Z,24.24
2022-08-24T00:15:11.947Z,24.24
2022-08-24T00:16:15.244Z,24.22
2022-08-24T00:17:20.443Z,24.22
2022-08-24T00:18:23.425Z,24.23
2022-08-24T00:19:26.516Z,24.22
2022-08-24T00:20:29.092Z,24.22
2022-08-24T00:21:31.723Z,24.20
2022-08-24T00:22:33.400Z,24.18
2022-08-24T00:23:36.994Z,24.17
2022-08-24T00:24:39.358Z,24.15
2022-08-24T00:25:42.527Z,24.12
2022-08-24T00:26:45.950Z,24.10
2022-08-24T00:27:48.930Z,24.08
2022-08-24T00:28:50.520Z,24.07
2022-08-24T00:29:53.107Z,24.06
2022-08-24T00:30:54.845Z,24.05
2022-08-24T00:31:57.452Z,24.04
2022-08-24T00:32:59.422Z,24.03
2022-08-24T00:34:03.567Z,24.02
2022-08-24T00:35:06.723Z,24.01
2022-08-24T00:36:09.628Z,24.00
2022-08-24T00:37:11.254Z,23.99
2022-08-24T00:38:14.263Z,23.99
2022-08-24T00:39:16.097Z,23.98
2022-08-24T00:40:22.147Z,23.98
2022-08-24T00:41:24.469Z,23.98
2022-08-24T00:42:27.165Z,23.96
2022-08-24T00:43:29.486Z,23.94
2022-08-24T00:44:32.115Z,23.95
2022-08-24T00:45:40.631Z,23.94
2022-08-24T00:46:46.836Z,23.93
2022-08-24T00:47:51.939Z,23.92
2022-08-24T00:49:47.415Z,23.89
2022-08-24T00:50:55.762Z,23.88
2022-08-24T00:52:04.806Z,23.88
2022-08-24T00:53:11.829Z,23.85
2022-08-24T00:54:17.572Z,23.83
2022-08-24T00:55:26.352Z,23.82
2022-08-24T00:56:32.570Z,23.80
2022-08-24T00:57:39.962Z,23.79
2022-08-24T00:58:47.395Z,23.78
2022-08-24T01:00:05.107Z,23.76
2022-08-24T01:01:11.239Z,23.74
2022-08-24T01:02:18.328Z,23.74
2022-08-24T01:03:21.613Z,23.73
2022-08-24T01:04:29.780Z,23.73
2022-08-24T01:05:34.236Z,23.73
2022-08-24T01:06:37.372Z,23.73
2022-08-24T01:07:41.016Z,23.73
2022-08-24T01:08:43.417Z,23.72
2022-08-24T01:09:47.268Z,23.71
2022-08-24T01:10:52.784Z,23.72
2022-08-24T01:11:55.445Z,23.70
2022-08-24T01:13:01.526Z,23.69
2022-08-24T01:14:04.343Z,23.69
2022-08-24T01:15:09.945Z,23.69
2022-08-24T01:16:13.543Z,23.69
2022-08-24T01:17:38.779Z,23.69
2022-08-24T01:18:50.619Z,23.69
2022-08-24T01:19:56.264Z,23.67
2022-08-24T01:21:03.541Z,23.65
2022-08-24T01:22:26.984Z,23.64
2022-08-24T01:23:37.004Z,23.64
2022-08-24T01:24:40.421Z,23.62
2022-08-24T01:25:44.985Z,23.61
2022-08-24T01:26:50.260Z,23.60
2022-08-24T01:27:55.818Z,23.59
2022-08-24T01:29:03.948Z,23.59
2022-08-24T01:30:10.540Z,23.57
2022-08-24T01:31:14.425Z,23.57
2022-08-24T01:32:18.438Z,23.56
2022-08-24T01:33:25.833Z,23.56
2022-08-24T01:34:27.555Z,23.56
2022-08-24T01:35:31.264Z,23.54
2022-08-24T01:36:36.092Z,23.52
2022-08-24T01:37:40.265Z,23.50
2022-08-24T01:38:43.903Z,23.50
2022-08-24T01:39:48.892Z,23.49
2022-08-24T01:40:54.948Z,23.48
2022-08-24T01:41:58.386Z,23.46
2022-08-24T01:43:00.377Z,23.44
2022-08-24T01:44:03.301Z,23.43
2022-08-24T01:45:07.177Z,23.43
2022-08-24T01:46:10.474Z,23.42
2022-08-24T01:47:15.160Z,23.39
2022-08-24T01:48:19.911Z,23.40
2022-08-24T01:49:35.375Z,23.38
2022-08-24T01:50:38.357Z,23.36
2022-08-24T01:51:39.991Z,23.35
2022-08-24T01:53:04.325Z,23.35
2022-08-24T01:54:08.033Z,23.32
2022-08-24T01:55:13.519Z,23.32
2022-08-24T01:56:16.679Z,23.30
2022-08-24T01:57:20.311Z,23.29
2022-08-24T01:58:25.732Z,23.28
2022-08-24T01:59:27.440Z,23.27
2022-08-24T02:00:30.856Z,23.28
2022-08-24T02:01:37.395Z,23.28
2022-08-24T02:02:41.266Z,23.27
2022-08-24T02:03:43.800Z,23.27
2022-08-24T02:04:46.656Z,23.25
2022-08-24T02:05:48.427Z,23.25
2022-08-24T02:06:51.082Z,23.24
2022-08-24T02:07:53.024Z,23.24
2022-08-24T02:08:55.879Z,23.25
2022-08-24T02:09:59.107Z,23.24
2022-08-24T02:11:01.706Z,23.23
2022-08-24T02:12:04.148Z,23.22
2022-08-24T02:13:07.125Z,23.22
2022-08-24T02:14:08.796Z,23.21
2022-08-24T02:15:12.806Z,23.21
2022-08-24T02:16:15.721Z,23.22
2022-08-24T02:17:18.620Z,23.23
2022-08-24T02:18:21.321Z,23.22
2022-08-24T02:19:22.973Z,23.22
2022-08-24T02:20:26.013Z,23.22
2022-08-24T02:21:27.642Z,23.22
2022-08-24T02:22:30.214Z,23.22
2022-08-24T02:23:32.292Z,23.20
2022-08-24T02:24:35.344Z,23.21
2022-08-24T02:25:38.324Z,23.20
2022-08-24T02:26:41.127Z,23.19
2022-08-24T02:27:42.812Z,23.18
2022-08-24T02:28:46.531Z,23.18
2022-08-24T02:29:48.192Z,23.18
2022-08-24T02:30:50.856Z,23.17
2022-08-24T02:31:52.459Z,23.16
2022-08-24T02:32:55.188Z,23.16
2022-08-24T02:33:58.288Z,23.15
2022-08-24T02:35:00.854Z,23.15
2022-08-24T02:36:02.966Z,23.14
2022-08-24T02:37:07.576Z,23.13
2022-08-24T02:38:09.904Z,23.11
2022-08-24T02:39:12.706Z,23.09
2022-08-24T02:40:14.500Z,23.07
2022-08-24T02:41:18.557Z,23.07
2022-08-24T02:42:20.155Z,23.06
2022-08-24T02:43:22.744Z,23.05
2022-08-24T02:44:24.687Z,23.06
2022-08-24T02:45:27.332Z,23.04
2022-08-24T02:46:30.821Z,23.03
2022-08-24T02:47:39.255Z,23.04
2022-08-24T02:48:41.654Z,23.04
2022-08-24T02:49:44.872Z,23.04
2022-08-24T02:50:49.195Z,23.04
2022-08-24T02:51:51.948Z,23.05
2022-08-24T02:52:54.299Z,23.03
2022-08-24T02:53:58.216Z,23.03
2022-08-24T02:54:59.842Z,23.03
2022-08-24T02:56:02.530Z,23.03
2022-08-24T02:57:05.948Z,23.03
2022-08-24T02:58:09.755Z,23.04
2022-08-24T02:59:11.531Z,23.03
2022-08-24T03:00:19.203Z,23.03
2022-08-24T03:01:24.030Z,23.02
2022-08-24T03:02:32.980Z,23.02
2022-08-24T03:03:34.890Z,23.00
2022-08-24T03:04:38.943Z,23.00
2022-08-24T03:05:42.623Z,22.99
2022-08-24T03:06:45.306Z,22.98
2022-08-24T03:07:47.610Z,22.98
2022-08-24T03:08:56.178Z,22.97
2022-08-24T03:09:58.689Z,22.95
2022-08-24T03:11:01.511Z,22.95
2022-08-24T03:12:05.105Z,22.93
2022-08-24T03:13:07.920Z,22.92
2022-08-24T03:14:10.254Z,22.91
2022-08-24T03:15:13.922Z,22.89
2022-08-24T03:16:16.722Z,22.89
2022-08-24T03:17:19.308Z,22.88
2022-08-24T03:18:21.280Z,22.89
2022-08-24T03:19:27.953Z,22.88
2022-08-24T03:20:29.834Z,22.89
2022-08-24T03:21:33.220Z,22.87
2022-08-24T03:22:34.902Z,22.88
2022-08-24T03:23:38.093Z,22.86
2022-08-24T03:24:39.906Z,22.84
2022-08-24T03:25:42.825Z,22.83
2022-08-24T03:26:44.688Z,22.81
2022-08-24T03:27:48.680Z,22.79
2022-08-24T03:28:52.022Z,22.78
2022-08-24T03:29:54.702Z,22.78
2022-08-24T03:30:56.437Z,22.79
2022-08-24T03:31:59.887Z,22.78
2022-08-24T03:33:01.621Z,22.79
2022-08-24T03:34:04.515Z,22.79
2022-08-24T03:35:07.388Z,22.78
2022-08-24T03:36:13.646Z,22.77
2022-08-24T03:37:17.332Z,22.76
2022-08-24T03:38:19.471Z,22.76
2022-08-24T03:39:22.180Z,22.77
2022-08-24T03:40:24.802Z,22.76
2022-08-24T03:41:27.890Z,22.74
2022-08-24T03:42:29.532Z,22.74
2022-08-24T03:43:49.073Z,22.74
2022-08-24T03:44:50.703Z,22.72
2022-08-24T03:45:53.310Z,22.71
2022-08-24T03:46:55.130Z,22.69
2022-08-24T03:47:58.227Z,22.68
2022-08-24T03:49:00.068Z,22.68
2022-08-24T03:50:02.894Z,22.66
2022-08-24T03:51:04.712Z,22.67
2022-08-24T03:52:08.155Z,22.66
2022-08-24T03:53:09.729Z,22.65
2022-08-24T03:54:14.414Z,22.66
2022-08-24T03:55:16.273Z,22.66
2022-08-24T03:56:19.046Z,22.65
2022-08-24T03:57:20.685Z,22.64
2022-08-24T03:58:23.350Z,22.64
2022-08-24T03:59:26.439Z,22.63
2022-08-24T04:00:29.059Z,22.62
2022-08-24T04:01:31.005Z,22.59
2022-08-24T04:02:34.074Z,22.58
2022-08-24T04:03:36.894Z,22.57
2022-08-24T04:04:39.483Z,22.55
2022-08-24T04:05:42.310Z,22.54
2022-08-24T04:06:46.776Z,22.52
2022-08-24T04:07:48.595Z,22.53
2022-08-24T04:08:52.296Z,22.53
2022-08-24T04:09:54.130Z,22.52
2022-08-24T04:10:56.779Z,22.53
2022-08-24T04:11:59.527Z,22.53
2022-08-24T04:13:01.525Z,22.53
2022-08-24T04:14:05.135Z,22.53
2022-08-24T04:15:10.004Z,22.53
2022-08-24T04:16:15.256Z,22.52
2022-08-24T04:17:16.997Z,22.53
2022-08-24T04:18:19.800Z,22.53
2022-08-24T04:19:21.516Z,22.52
2022-08-24T04:20:25.723Z,22.51
2022-08-24T04:21:29.138Z,22.51
2022-08-24T04:22:33.986Z,22.50
2022-08-24T04:23:46.986Z,22.47
2022-08-24T04:24:50.546Z,22.45
2022-08-24T04:25:52.191Z,22.45
2022-08-24T04:26:54.858Z,22.47
2022-08-24T04:27:56.561Z,22.47
2022-08-24T04:28:59.944Z,22.47
2022-08-24T04:30:01.607Z,22.47
2022-08-24T04:31:07.399Z,22.47
2022-08-24T04:32:09.587Z,22.47
2022-08-24T04:33:13.401Z,22.49
2022-08-24T04:34:16.386Z,22.49
2022-08-24T04:35:19.050Z,22.49
2022-08-24T04:36:21.804Z,22.48
2022-08-24T04:37:29.165Z,22.47
2022-08-24T04:38:31.514Z,22.46
2022-08-24T04:39:34.469Z,22.46
2022-08-24T04:40:39.609Z,22.45
2022-08-24T04:41:42.759Z,22.48
2022-08-24T04:42:44.545Z,22.49
2022-08-24T04:43:49.350Z,22.50
2022-08-24T04:44:51.137Z,22.50
2022-08-24T04:45:53.977Z,22.50
2022-08-24T04:46:58.382Z,22.52
2022-08-24T04:48:00.240Z,22.51
2022-08-24T04:49:02.952Z,22.52
2022-08-24T04:50:05.819Z,22.53
2022-08-24T04:51:14.075Z,22.53
2022-08-24T04:52:16.086Z,22.52
2022-08-24T04:53:18.723Z,22.53
2022-08-24T04:54:20.563Z,22.54
2022-08-24T04:55:23.177Z,22.54
2022-08-24T04:56:26.124Z,22.55
2022-08-24T04:57:28.784Z,22.55
2022-08-24T04:58:31.455Z,22.56
2022-08-24T04:59:34.041Z,22.56
2022-08-24T05:00:35.798Z,22.59
2022-08-24T05:01:38.385Z,22.60
2022-08-24T05:02:44.872Z,22.61
2022-08-24T05:03:50.207Z,22.61
2022-08-24T05:04:52.866Z,22.62
2022-08-24T05:05:54.529Z,22.62
2022-08-24T05:06:57.208Z,22.62
2022-08-24T05:07:58.832Z,22.64
2022-08-24T05:09:02.323Z,22.64
2022-08-24T05:10:05.582Z,22.65
2022-08-24T05:11:12.015Z,22.66
2022-08-24T05:12:13.801Z,22.66
2022-08-24T05:13:17.227Z,22.66
2022-08-24T05:14:18.968Z,22.69
2022-08-24T05:15:21.713Z,22.70
2022-08-24T05:16:24.939Z,22.72
2022-08-24T05:17:28.631Z,22.72
2022-08-24T05:18:33.477Z,22.73
2022-08-24T05:19:36.124Z,22.75
2022-08-24T05:20:39.722Z,22.75
2022-08-24T05:21:44.222Z,22.75
2022-08-24T05:22:46.003Z,22.76
2022-08-24T05:23:48.690Z,22.78
2022-08-24T05:24:51.707Z,22.78
2022-08-24T05:25:53.419Z,22.79
2022-08-24T05:26:56.401Z,22.79
2022-08-24T05:27:58.268Z,22.80
2022-08-24T05:29:02.804Z,22.81
2022-08-24T05:30:05.910Z,22.82
2022-08-24T05:31:10.795Z,22.82
2022-08-24T05:32:19.086Z,22.84
2022-08-24T05:33:20.802Z,22.85
2022-08-24T05:34:25.070Z,22.87
2022-08-24T05:35:26.722Z,22.88
2022-08-24T05:36:31.100Z,22.90
2022-08-24T05:37:35.059Z,22.91
2022-08-24T05:38:37.642Z,22.94
2022-08-24T05:39:39.291Z,22.97
2022-08-24T05:40:42.129Z,23.04
2022-08-24T05:41:45.584Z,23.11
2022-08-24T05:42:48.533Z,23.19
2022-08-24T05:43:50.865Z,23.27
2022-08-24T05:44:53.559Z,23.35
2022-08-24T05:45:55.456Z,23.43
2022-08-24T05:46:59.446Z,23.51
2022-08-24T05:48:01.164Z,23.58
2022-08-24T05:49:03.805Z,23.67
2022-08-24T05:50:08.166Z,23.75
2022-08-24T05:51:11.930Z,23.82
2022-08-24T05:52:14.038Z,23.87
2022-08-24T05:53:16.722Z,23.92
2022-08-24T05:54:19.811Z,23.94
2022-08-24T05:55:21.505Z,23.98
2022-08-24T05:56:26.734Z,24.03
2022-08-24T05:57:33.579Z,24.06
2022-08-24T05:58:37.895Z,24.12
2022-08-24T05:59:40.032Z,24.18
2022-08-24T06:00:45.629Z,24.22
2022-08-24T06:01:47.321Z,24.28
2022-08-24T06:02:52.714Z,24.32
2022-08-24T06:03:55.969Z,24.35
2022-08-24T06:04:58.690Z,24.40
2022-08-24T06:06:02.860Z,24.45
2022-08-24T06:07:06.172Z,24.48
2022-08-24T06:08:08.240Z,24.53
2022-08-24T06:09:11.997Z,24.56
2022-08-24T06:10:35.379Z,24.59
2022-08-24T06:11:39.181Z,24.61
2022-08-24T06:12:40.761Z,24.65
2022-08-24T06:13:43.571Z,24.69
2022-08-24T06:14:47.431Z,24.73
2022-08-24T06:16:10.906Z,24.76
2022-08-24T06:17:12.489Z,24.77
2022-08-24T06:18:14.342Z,24.81
2022-08-24T06:19:19.951Z,24.86
2022-08-24T06:20:22.137Z,24.89
2022-08-24T06:21:28.641Z,24.92
2022-08-24T06:22:30.479Z,24.94
2022-08-24T06:23:33.224Z,24.97
2022-08-24T06:24:54.545Z,25.01
2022-08-24T06:26:20.159Z,25.03
2022-08-24T06:27:26.174Z,25.08
2022-08-24T06:28:27.758Z,25.12
2022-08-24T06:29:30.553Z,25.14
2022-08-24T06:30:32.939Z,25.18
2022-08-24T06:31:39.804Z,25.21
2022-08-24T06:32:43.954Z,25.24
2022-08-24T06:33:47.854Z,25.28
2022-08-24T06:34:49.559Z,25.30
2022-08-24T06:35:52.458Z,25.32
2022-08-24T06:36:55.737Z,25.34
2022-08-24T06:37:59.628Z,25.38
2022-08-24T06:39:01.726Z,25.42
2022-08-24T06:40:05.254Z,25.45
2022-08-24T06:41:07.440Z,25.50
2022-08-24T06:42:10.949Z,25.51
2022-08-24T06:43:12.608Z,25.52
2022-08-24T06:44:15.236Z,25.54
2022-08-24T06:45:17.191Z,25.57
2022-08-24T06:46:24.441Z,25.60
2022-08-24T06:47:28.500Z,25.60
2022-08-24T06:48:30.460Z,25.61
2022-08-24T06:49:33.054Z,25.64
2022-08-24T06:50:35.418Z,25.66
2022-08-24T06:51:38.002Z,25.67
2022-08-24T06:52:40.941Z,25.66
2022-08-24T06:53:46.263Z,25.65
2022-08-24T06:54:47.930Z,25.62
2022-08-24T06:55:51.633Z,25.59
2022-08-24T06:56:56.226Z,25.58
2022-08-24T06:57:58.348Z,25.56
2022-08-24T06:59:03.212Z,25.52
2022-08-24T07:00:07.935Z,25.49
2022-08-24T07:01:13.327Z,25.45
2022-08-24T07:02:16.306Z,25.43
2022-08-24T07:03:19.016Z,25.41
2022-08-24T07:04:21.835Z,25.39
2022-08-24T07:05:30.155Z,25.39
2022-08-24T07:06:31.774Z,25.37
2022-08-24T07:07:34.437Z,25.38
2022-08-24T07:08:37.515Z,25.38
2022-08-24T07:09:40.254Z,25.38
2022-08-24T07:10:42.613Z,25.40
2022-08-24T07:11:45.317Z,25.41
2022-08-24T07:12:47.268Z,25.42
2022-08-24T07:13:51.097Z,25.43
2022-08-24T07:14:52.849Z,25.44
2022-08-24T07:15:56.094Z,25.44
2022-08-24T07:16:58.887Z,25.46
2022-08-24T07:18:01.204Z,25.45
2022-08-24T07:19:05.279Z,25.48
2022-08-24T07:20:09.135Z,25.49
2022-08-24T07:21:11.717Z,25.51
2022-08-24T07:22:13.975Z,25.52
2022-08-24T07:23:22.442Z,25.52
2022-08-24T07:24:46.518Z,25.53
2022-08-24T07:25:52.154Z,25.54
2022-08-24T07:26:58.180Z,25.56
2022-08-24T07:28:00.713Z,25.58
2022-08-24T07:29:06.640Z,25.60
2022-08-24T07:30:26.376Z,25.62
2022-08-24T07:31:35.100Z,25.62
2022-08-24T07:32:37.119Z,25.62
2022-08-24T07:33:39.665Z,25.64
2022-08-24T07:34:41.396Z,25.65
2022-08-24T07:35:44.109Z,25.67
2022-08-24T07:36:45.777Z,25.69
2022-08-24T07:37:48.386Z,25.69
2022-08-24T07:38:53.308Z,25.71
2022-08-24T07:39:57.917Z,25.74
2022-08-24T07:41:20.621Z,25.74
2022-08-24T07:42:29.716Z,25.75
2022-08-24T07:43:33.541Z,25.76
2022-08-24T07:44:36.820Z,25.79
2022-08-24T07:45:41.972Z,25.81
2022-08-24T07:46:45.327Z,25.82
2022-08-24T07:47:54.595Z,25.84
2022-08-24T07:49:11.414Z,25.86
2022-08-24T07:50:16.249Z,25.87
2022-08-24T07:51:19.372Z,25.89
2022-08-24T07:52:22.316Z,25.91
2022-08-24T07:53:32.468Z,25.93
2022-08-24T07:54:46.592Z,25.92
2022-08-24T07:55:55.152Z,25.94
2022-08-24T07:57:02.239Z,25.97
2022-08-24T07:58:05.078Z,25.98
2022-08-24T07:59:12.339Z,26.01
2022-08-24T08:00:19.555Z,26.02
2022-08-24T08:01:23.247Z,26.03
2022-08-24T08:02:25.266Z,26.06
2022-08-24T08:03:35.305Z,26.05
2022-08-24T08:04:39.492Z,26.07
2022-08-24T08:05:43.069Z,26.09
2022-08-24T08:06:45.687Z,26.12
2022-08-24T08:07:51.504Z,26.16
2022-08-24T08:08:55.954Z,26.18
2022-08-24T08:09:57.954Z,26.23
2022-08-24T08:11:02.913Z,26.26
2022-08-24T08:12:06.497Z,26.28
2022-08-24T08:13:16.312Z,26.32
2022-08-24T08:14:19.017Z,26.34
2022-08-24T08:15:22.060Z,26.39
2022-08-24T08:16:24.870Z,26.41
2022-08-24T08:17:27.185Z,26.45
2022-08-24T08:18:29.954Z,26.48
2022-08-24T08:19:32.990Z,26.51
2022-08-24T08:20:34.862Z,26.53
2022-08-24T08:22:00.655Z,26.55
2022-08-24T08:23:20.924Z,26.56
2022-08-24T08:24:23.593Z,26.59
2022-08-24T08:25:26.465Z,26.61
2022-08-24T08:26:30.546Z,26.64
2022-08-24T08:27:32.981Z,26.67
2022-08-24T08:28:36.386Z,26.71
2022-08-24T08:29:40.434Z,26.73
2022-08-24T08:30:43.216Z,26.74
2022-08-24T08:31:45.617Z,26.75
2022-08-24T08:32:48.225Z,26.75
2022-08-24T08:33:49.802Z,26.76
2022-08-24T08:34:52.531Z,26.77
2022-08-24T08:36:03.067Z,26.79
2022-08-24T08:37:06.453Z,26.78
2022-08-24T08:38:09.005Z,26.78
2022-08-24T08:39:15.672Z,26.79
2022-08-24T08:40:28.324Z,26.82
2022-08-24T08:42:05.238Z,26.84
2022-08-24T08:43:11.624Z,26.83
2022-08-24T08:44:20.052Z,26.85
2022-08-24T08:45:36.366Z,26.85
2022-08-24T08:46:45.337Z,26.89
2022-08-24T08:48:14.745Z,26.89
2022-08-24T08:49:40.251Z,26.88
2022-08-24T08:51:03.137Z,26.89
2022-08-24T08:52:43.822Z,26.90
2022-08-24T08:54:13.098Z,26.89
2022-08-24T08:55:29.287Z,26.90
2022-08-24T08:56:35.689Z,26.92
2022-08-24T08:57:54.640Z,26.95
2022-08-24T08:59:06.644Z,26.99
2022-08-24T09:00:15.709Z,27.05
2022-08-24T09:01:32.534Z,27.09
2022-08-24T09:03:03.425Z,27.15
2022-08-24T09:04:21.631Z,27.20
2022-08-24T09:05:49.479Z,27.23
2022-08-24T09:07:08.372Z,27.29
2022-08-24T09:08:19.545Z,27.33
2022-08-24T09:09:42.522Z,27.36
2022-08-24T09:10:57.974Z,27.40
2022-08-24T09:12:08.908Z,27.43
2022-08-24T09:13:33.331Z,27.45
2022-08-24T09:15:11.012Z,27.46
2022-08-24T09:16:25.760Z,27.48
2022-08-24T09:17:46.108Z,27.50
2022-08-24T09:19:02.790Z,27.53
2022-08-24T09:20:23.790Z,27.56
2022-08-24T09:21:41.964Z,27.59
2022-08-24T09:22:48.284Z,27.61
2022-08-24T09:24:00.438Z,27.65
2022-08-24T09:25:16.829Z,27.68
2022-08-24T09:26:27.050Z,27.71
2022-08-24T09:27:41.978Z,27.73
2022-08-24T09:28:52.075Z,27.75
2022-08-24T09:30:08.131Z,27.78
2022-08-24T09:31:36.775Z,27.80
2022-08-24T09:32:56.244Z,27.81
2022-08-24T09:34:08.721Z,27.81
2022-08-24T09:35:26.296Z,27.82
2022-08-24T09:36:40.168Z,27.82
2022-08-24T09:37:59.007Z,27.82
2022-08-24T09:39:08.453Z,27.83
2022-08-24T09:40:28.095Z,27.86
2022-08-24T09:42:09.336Z,27.86
2022-08-24T09:43:44.148Z,27.86
2022-08-24T09:45:20.908Z,27.87
2022-08-24T09:46:57.767Z,27.86
2022-08-24T09:48:36.973Z,27.87
2022-08-24T09:50:03.702Z,27.89
2022-08-24T09:51:29.816Z,27.92
2022-08-24T09:52:57.843Z,27.97
2022-08-24T09:54:28.925Z,28.03
2022-08-24T09:56:02.434Z,28.11
2022-08-24T09:57:50.480Z,28.16
2022-08-24T09:59:08.645Z,28.22
2022-08-24T10:00:19.604Z,28.28
2022-08-24T10:01:30.948Z,28.33
2022-08-24T10:02:58.342Z,28.37
2022-08-24T10:04:18.899Z,28.41
2022-08-24T10:05:36.421Z,28.44
2022-08-24T10:06:52.850Z,28.47
2022-08-24T10:08:05.021Z,28.50
2022-08-24T10:09:40.832Z,28.51
2022-08-24T10:10:50.951Z,28.53
2022-08-24T10:12:01.835Z,28.57
2022-08-24T10:13:20.374Z,28.60
2022-08-24T10:14:42.082Z,28.62
2022-08-24T10:15:57.427Z,28.64
2022-08-24T10:17:09.293Z,28.66
2022-08-24T10:18:24.727Z,28.67
2022-08-24T10:19:49.553Z,28.68
2022-08-24T10:21:04.307Z,28.70
2022-08-24T10:22:15.203Z,28.72
2022-08-24T10:23:39.507Z,28.74
2022-08-24T10:25:00.655Z,28.75
2022-08-24T10:26:08.924Z,28.79
2022-08-24T10:27:24.798Z,28.81
2022-08-24T10:28:39.654Z,28.81
2022-08-24T10:30:04.588Z,28.81
2022-08-24T10:31:13.092Z,28.83
2022-08-24T10:32:41.220Z,28.85
2022-08-24T10:33:59.126Z,28.88
2022-08-24T10:35:06.664Z,28.93
2022-08-24T10:36:25.825Z,28.99
2022-08-24T10:38:13.508Z,29.06
2022-08-24T10:39:43.639Z,29.09
2022-08-24T10:40:59.167Z,29.13
2022-08-24T10:42:34.274Z,29.16
2022-08-24T10:44:06.867Z,29.17
2022-08-24T10:45:24.827Z,29.21
2022-08-24T10:49:22.214Z,29.29
2022-08-24T10:50:41.617Z,29.32
2022-08-24T10:52:00.333Z,29.37
2022-08-24T10:53:24.010Z,29.40
2022-08-24T10:54:26.217Z,29.42
2022-08-24T10:55:31.894Z,29.47
2022-08-24T10:56:41.918Z,29.50
2022-08-24T10:57:55.066Z,29.52
2022-08-24T10:59:08.161Z,29.54
2022-08-24T11:00:22.934Z,29.56
2022-08-24T11:01:30.529Z,29.60
2022-08-24T11:02:34.729Z,29.62
2022-08-24T11:03:50.454Z,29.63
2022-08-24T11:04:57.364Z,29.64
2022-08-24T11:06:00.613Z,29.65
2022-08-24T11:07:08.718Z,29.66
2022-08-24T11:08:18.097Z,29.65
2022-08-24T11:09:20.664Z,29.64
2022-08-24T11:10:25.868Z,29.66
2022-08-24T11:11:34.176Z,29.66
2022-08-24T11:12:39.921Z,29.65
2022-08-24T11:13:52.307Z,29.65
2022-08-24T11:14:56.638Z,29.67
2022-08-24T11:16:00.309Z,29.69
2022-08-24T11:17:16.324Z,29.69
2022-08-24T11:18:18.434Z,29.71
2022-08-24T11:19:33.212Z,29.73
2022-08-24T11:20:40.979Z,29.74
2022-08-24T11:21:50.962Z,29.76
2022-08-24T11:23:02.663Z,29.77
2022-08-24T11:24:09.686Z,29.79
2022-08-24T11:25:17.887Z,29.80
2022-08-24T11:26:22.160Z,29.82
2022-08-24T11:27:32.304Z,29.83
2022-08-24T11:28:38.858Z,29.82
2022-08-24T11:30:02.770Z,29.80
2022-08-24T11:31:06.042Z,29.82
2022-08-24T11:32:07.757Z,29.83
2022-08-24T11:33:28.722Z,29.83
2022-08-24T11:34:34.657Z,29.83
2022-08-24T11:35:41.252Z,29.86
2022-08-24T11:36:44.169Z,29.88
2022-08-24T11:37:49.940Z,29.91
2022-08-24T11:39:12.576Z,29.90
2022-08-24T11:40:17.932Z,29.89
2022-08-24T11:41:25.803Z,29.90
2022-08-24T11:42:38.859Z,29.90
2022-08-24T11:43:57.731Z,29.89
2022-08-24T11:45:09.133Z,29.87
2022-08-24T11:46:22.986Z,29.89
2022-08-24T11:47:43.151Z,29.88
2022-08-24T11:48:59.641Z,29.89
2022-08-24T11:50:08.672Z,29.91
2022-08-24T11:51:16.717Z,29.93
2022-08-24T11:52:27.125Z,29.97
2022-08-24T11:54:57.735Z,30.02
2022-08-24T11:56:08.023Z,30.04
2022-08-24T11:57:15.971Z,30.09
2022-08-24T11:58:30.444Z,30.12
2022-08-24T11:59:45.356Z,30.16
2022-08-24T12:01:09.531Z,30.16
2022-08-24T12:02:18.658Z,30.21
2022-08-24T12:03:35.160Z,30.26
2022-08-24T12:04:50.551Z,30.29
2022-08-24T12:05:58.838Z,30.34
2022-08-24T12:07:12.418Z,30.38
2022-08-24T12:08:23.345Z,30.42
2022-08-24T12:09:38.980Z,30.43
2022-08-24T12:10:50.571Z,30.47
2022-08-24T12:12:00.425Z,30.52
2022-08-24T12:13:11.574Z,30.58
2022-08-24T12:14:21.852Z,30.62
2022-08-24T12:15:39.368Z,30.65
2022-08-24T12:16:48.333Z,30.67
2022-08-24T12:17:56.251Z,30.69
2022-08-24T12:19:05.686Z,30.69
2022-08-24T12:20:25.716Z,30.68
2022-08-24T12:21:32.538Z,30.70
2022-08-24T12:22:34.198Z,30.73
2022-08-24T12:23:39.856Z,30.75
2022-08-24T12:24:46.824Z,30.75
2022-08-24T12:26:03.333Z,30.75
2022-08-24T12:27:11.571Z,30.74
2022-08-24T12:28:17.326Z,30.74
2022-08-24T12:29:27.256Z,30.74
2022-08-24T12:30:28.900Z,30.75
2022-08-24T12:31:40.395Z,30.78
2022-08-24T12:32:45.528Z,30.81
2022-08-24T12:33:52.013Z,30.84
2022-08-24T12:34:59.891Z,30.84
2022-08-24T12:36:04.696Z,30.81
2022-08-24T12:37:16.027Z,30.80
2022-08-24T12:38:26.334Z,30.79
2022-08-24T12:39:35.509Z,30.80
2022-08-24T12:40:43.993Z,30.81
2022-08-24T12:41:56.573Z,30.83
2022-08-24T12:43:04.747Z,30.85
2022-08-24T12:44:12.577Z,30.85
2022-08-24T12:45:18.550Z,30.87
2022-08-24T12:46:24.055Z,30.88
2022-08-24T12:47:33.120Z,30.90
2022-08-24T12:48:42.645Z,30.93
2022-08-24T12:49:51.477Z,30.98
2022-08-24T12:51:08.107Z,30.99
2022-08-24T12:52:25.284Z,31.02
2022-08-24T12:53:55.973Z,31.02
2022-08-24T12:55:16.559Z,31.03
2022-08-24T12:56:39.924Z,31.05
2022-08-24T12:57:54.155Z,31.07
2022-08-24T12:59:08.843Z,31.06
2022-08-24T13:00:16.235Z,31.08
2022-08-24T13:01:21.105Z,31.11
2022-08-24T13:02:36.619Z,31.10
2022-08-24T13:03:43.997Z,31.10
2022-08-24T13:04:58.913Z,31.07
2022-08-24T13:06:05.352Z,31.05
2022-08-24T13:07:12.073Z,31.05
2022-08-24T13:08:33.658Z,31.06
2022-08-24T13:09:40.007Z,31.03
2022-08-24T13:10:46.294Z,31.04
2022-08-24T13:11:49.257Z,31.07
2022-08-24T13:13:12.092Z,31.04
2022-08-24T13:14:20.869Z,31.03
2022-08-24T13:15:43.757Z,31.03
2022-08-24T13:17:08.645Z,30.97
2022-08-24T13:18:43.015Z,30.90
2022-08-24T13:20:07.191Z,30.87
2022-08-24T13:21:33.644Z,30.86
2022-08-24T13:23:04.815Z,30.86
2022-08-24T13:24:51.188Z,30.89
2022-08-24T13:25:58.994Z,30.93
2022-08-24T13:27:35.557Z,30.96
2022-08-24T13:28:45.395Z,30.97
2022-08-24T13:29:53.881Z,31.01
2022-08-24T13:31:28.023Z,31.00
2022-08-24T13:32:32.112Z,31.03
2022-08-24T13:33:39.703Z,31.05
2022-08-24T13:34:44.892Z,31.06
2022-08-24T13:36:06.814Z,31.04
2022-08-24T13:37:16.335Z,31.05
2022-08-24T13:38:28.962Z,31.05
2022-08-24T13:39:54.215Z,31.05
2022-08-24T13:41:01.037Z,31.01
2022-08-24T13:42:12.876Z,31.01
2022-08-24T13:43:19.307Z,30.99
2022-08-24T13:44:32.793Z,30.99
2022-08-24T13:45:40.911Z,30.98
2022-08-24T13:46:53.747Z,31.00
2022-08-24T13:48:10.224Z,31.00
2022-08-24T13:49:25.707Z,30.99
2022-08-24T13:50:33.949Z,30.99
2022-08-24T13:51:44.801Z,31.01
2022-08-24T13:53:03.770Z,31.06
2022-08-24T13:54:20.220Z,31.10
2022-08-24T13:55:35.378Z,31.15
2022-08-24T13:56:49.299Z,31.23
2022-08-24T13:58:08.061Z,31.28
2022-08-24T13:59:16.245Z,31.37
2022-08-24T14:00:43.953Z,31.42
2022-08-24T14:02:03.115Z,31.49
2022-08-24T14:03:27.055Z,31.57
2022-08-24T14:04:47.491Z,31.62
2022-08-24T14:05:57.626Z,31.70
2022-08-24T14:07:09.268Z,31.77
2022-08-24T14:08:30.019Z,31.81
2022-08-24T14:09:39.860Z,31.88
2022-08-24T14:10:54.198Z,31.94
2022-08-24T14:12:08.316Z,32.01
2022-08-24T14:13:29.116Z,32.05
2022-08-24T14:14:51.282Z,32.09
2022-08-24T14:16:14.591Z,32.14
2022-08-24T14:17:45.343Z,32.17
2022-08-24T14:18:59.667Z,32.18
2022-08-24T14:20:08.358Z,32.22
2022-08-24T14:21:17.921Z,32.24
2022-08-24T14:22:32.576Z,32.23
2022-08-24T14:23:52.463Z,32.19
2022-08-24T14:25:05.436Z,32.18
2022-08-24T14:26:41.922Z,32.15
2022-08-24T14:27:47.507Z,32.10
2022-08-24T14:28:49.800Z,32.10
2022-08-24T14:29:52.823Z,32.09
2022-08-24T14:32:45.037Z,32.03
2022-08-24T14:34:01.302Z,32.01
2022-08-24T14:35:20.979Z,32.01
2022-08-24T14:36:39.360Z,31.98
2022-08-24T14:38:05.612Z,31.97
2022-08-24T14:39:24.543Z,31.93
2022-08-24T14:40:35.029Z,31.94
2022-08-24T14:41:59.709Z,31.92
2022-08-24T14:43:21.334Z,31.93
2022-08-24T14:44:51.798Z,31.90
2022-08-24T14:45:59.289Z,31.88
2022-08-24T14:47:08.895Z,31.89